• Join FlightAware (Why Join?)
  • Login
  • US Flag 
Rudolph Flight #1: Scheduled 
10:04PM EST


 

Airport Tracker/Info


-or-


 

Live Flight TrackerFlight Track Log ✈ SWA1718 ✈ 21-Oct-2013 ✈ KLAX - KMCI

Flight Track Log - Related Links

Times and Time Zones

All times are in EDT time to prevent confusion due to time zone crossing. See the SWA1718 flight status page for this flight to view local times or setup timezone preferences in your user account.

Time Position Orientation Groundspeed Altitude Reporting Facility
EDT Latitude Longitude Course Direction KTS MPH feet Rate Location/Type
10:04AM 33.9442 -118.4617 221° Southwest 171 197 1,700  Level Los Angeles Center
10:05AM 33.8997 -118.5086 221° Southwest 218 251 3,800 1,920 Climbing Los Angeles Center
10:06AM 33.8389 -118.5133 184° South 262 302 5,700 2,340 Climbing Los Angeles Center
10:07AM 33.7556 -118.5192 183° South 280 322 8,700 2,820 Climbing Los Angeles Center
10:08AM 33.6872 -118.4475 139° Southeast 321 369 11,500 2,760 Climbing Los Angeles Center
10:09AM 33.6472 -118.3456 115° Southeast 344 396 14,400 2,760 Climbing Los Angeles Center
10:10AM 33.6906 -118.2386 64° Northeast 375 432 17,200 2,700 Climbing Los Angeles Center
10:11AM 33.7458 -118.1294 59° Northeast 389 448 20,000 2,880 Climbing Los Angeles Center
10:12AM 33.8336 -118.0075 49° Northeast 416 479 23,200 2,220 Climbing Los Angeles Center
10:14AM 33.9458 -117.9078 36° Northeast 421 484 25,000 780 Climbing Los Angeles Center
10:15AM 34.0406 -117.8211 37° Northeast 427 491 25,000  Level Los Angeles Center
10:16AM 34.1294 -117.7269 41° Northeast 427 491 25,000 720 Level Los Angeles Center
10:17AM 34.2072 -117.6183 49° Northeast 428 493 26,500 1,620 Climbing Los Angeles Center
10:18AM 34.2889 -117.5072 48° Northeast 440 506 28,400 1,740 Climbing Los Angeles Center
10:19AM 34.3628 -117.3808 55° Northeast 465 535 30,100 1,740 Climbing Los Angeles Center
10:20AM 34.4050 -117.2275 72° East 463 533 32,400 2,160 Climbing Los Angeles Center
10:21AM 34.4614 -117.0247 71° East 457 526 35,000 2,100 Climbing Los Angeles Center
10:22AM 34.5025 -116.8825 71° East 451 519 36,800 1,500 Climbing Los Angeles Center
10:23AM 34.5411 -116.7431 71° East 442 509 38,100 1,020 Climbing Los Angeles Center
10:24AM 34.5797 -116.6025 72° East 441 507 39,000 420 Climbing Los Angeles Center
10:25AM 34.6194 -116.4606 71° East 444 511 39,000  Level Los Angeles Center
10:26AM 34.6589 -116.3200 71° East 443 510 39,000  Level Los Angeles Center
10:27AM 34.7056 -116.1500 71° East 443 510 39,000  Level Los Angeles Center
10:28AM 34.7433 -116.0100 72° East 440 506 39,000  Level Los Angeles Center
10:29AM 34.7806 -115.8711 72° East 436 502 39,000  Level Los Angeles Center
10:30AM 34.8186 -115.7322 72° East 434 499 39,000  Level Los Angeles Center
10:31AM 34.8558 -115.5939 72° East 433 498 39,000  Level Los Angeles Center
10:32AM 34.9000 -115.4306 72° East 433 498 39,000  Level Los Angeles Center
10:33AM 34.9300 -115.3178 90° East 436 502 39,000  Level Los Angeles Center
10:34AM 34.9002 -115.2531 90° East  Level FlightAware Approximate
10:34AM 34.9750 -115.1500 72° East 436 502 39,000  Level Los Angeles Center
10:35AM 35.0122 -115.0086 72° East 438 504 39,000  Level Los Angeles Center
10:36AM 35.0500 -114.8664 72° East 439 505 39,000  Level Los Angeles Center
10:37AM 35.0875 -114.7250 72° East 441 507 39,000  Level Los Angeles Center
10:38AM 35.1239 -114.5839 72° East 438 504 39,000  Level Los Angeles Center
10:40AM 35.1667 -114.4133 73° East 437 503 39,000  Level Los Angeles Center
10:41AM 35.2031 -114.2703 73° East 441 507 39,000  Level Los Angeles Center
10:42AM 35.2403 -114.1269 72° East 444 511 39,000  Level Los Angeles Center
10:43AM 35.2767 -113.9831 73° East 444 511 39,000  Level Los Angeles Center
10:44AM 35.3125 -113.8400 73° East 448 516 39,000  Level Los Angeles Center
10:45AM 35.3481 -113.6956 73° East 447 514 39,000  Level Los Angeles Center
10:46AM 35.4000 -113.4897 73° East 445 512 39,000  Level Los Angeles Center
10:47AM 35.4344 -113.3481 73° East 447 514 39,000  Level Los Angeles Center
10:48AM 35.4706 -113.2011 73° East 443 510 39,000  Level Los Angeles Center
10:49AM 35.5058 -113.0569 73° East 442 509 39,000  Level Los Angeles Center
10:50AM 35.5417 -112.9106 73° East 442 509 39,000  Level Los Angeles Center
10:51AM 35.5769 -112.7664 73° East 443 510 39,000  Level Los Angeles Center
10:52AM 35.6108 -112.6214 74° East 441 507 39,000  Level Los Angeles Center
10:53AM 35.6458 -112.4767 73° East 438 504 39,000  Level Los Angeles Center
10:54AM 35.6800 -112.3356 73° East 433 498 39,000  Level Los Angeles Center
10:55AM 35.7197 -112.1644 74° East 434 499 39,000  Level Los Angeles Center
10:56AM 35.7464 -112.0506 74° East 436 502 39,000  Level Los Angeles Center
10:57AM 35.7856 -111.8811 74° East 431 496 39,000  Level Los Angeles Center
10:58AM 35.8192 -111.7389 74° East 434 499 39,000  Level Los Angeles Center
10:59AM 35.8514 -111.5967 74° East 438 504 39,000  Level Los Angeles Center
11:00AM 35.8847 -111.4528 74° East 440 506 39,000  Level Denver Center
11:01AM 35.9183 -111.3081 74° East 441 507 39,000  Level Denver Center
11:02AM 35.9500 -111.1628 75° East 442 509 39,000  Level Denver Center
11:03AM 35.9833 -111.0164 74° East 444 511 39,000  Level Denver Center
11:04AM 36.0222 -110.8403 75° East 444 511 39,000  Level Denver Center
11:05AM 36.0553 -110.6950 74° East 443 510 39,000  Level Denver Center
11:06AM 36.0881 -110.5486 74° East 444 511 39,000  Level Denver Center
11:07AM 36.1197 -110.4025 75° East 442 509 39,000  Level Denver Center
11:08AM 36.1517 -110.2547 75° East 446 513 39,000  Level Denver Center
11:09AM 36.1889 -110.0844 75° East 441 507 39,000  Level Denver Center
11:11AM 36.2189 -109.9431 75° East 442 509 39,000  Level Denver Center
11:12AM 36.2528 -109.7794 76° East 440 506 39,000  Level Denver Center
11:13AM 36.2828 -109.6394 75° East 439 505 39,000  Level Denver Center
11:14AM 36.3122 -109.4983 75° East 439 505 39,000  Level Denver Center
11:15AM 36.3458 -109.3328 76° East 442 509 39,000  Level Denver Center
11:16AM 36.3764 -109.1914 75° East 441 507 39,000  Level Denver Center
11:17AM 36.4100 -109.0256 76° East 441 507 39,000  Level Denver Center
11:18AM 36.4394 -108.8817 76° East 443 510 39,000  Level Denver Center
11:19AM 36.4731 -108.7147 76° East 444 511 39,000  Level Denver Center
11:20AM 36.5019 -108.5719 76° East 443 510 39,000  Level Denver Center
11:21AM 36.5297 -108.4308 76° East 440 506 39,000  Level Denver Center
11:22AM 36.5625 -108.2678 76° East 435 501 39,000  Level Denver Center
11:23AM 36.5894 -108.1275 77° East 435 501 39,000  Level Denver Center
11:24AM 36.6217 -107.9633 76° East 436 502 39,000  Level Denver Center
11:25AM 36.6489 -107.8228 76° East 436 502 39,000  Level Denver Center
11:26AM 36.6817 -107.6575 76° East 439 505 39,000  Level Denver Center
11:27AM 36.7081 -107.5172 77° East 437 503 39,000  Level Denver Center
11:28AM 36.7394 -107.3517 77° East 439 505 39,000  Level Denver Center
11:29AM 36.7664 -107.2078 77° East 444 511 39,000 420 Level Denver Center
11:30AM 36.7986 -107.0400 76° East 445 512 39,900 780 Climbing Denver Center
11:31AM 36.8256 -106.8953 77° East 447 514 40,700 480 Climbing Denver Center
11:32AM 36.8569 -106.7247 77° East 452 520 41,000 120 Climbing Denver Center
11:33AM 36.8831 -106.5772 77° East 454 522 41,000  Level Denver Center
11:34AM 36.9144 -106.4067 77° East 451 519 41,000  Level Denver Center
11:35AM 36.9425 -106.2608 76° East 450 518 41,000  Level Denver Center
11:36AM 36.9692 -106.1092 78° East 451 519 41,000  Level Denver Center
11:37AM 36.9978 -105.9364 78° East 454 522 41,000  Level Denver Center
11:38AM 37.0250 -105.7894 77° East 454 522 41,000  Level Denver Center
11:39AM 37.0547 -105.6172 78° East 454 522 41,000  Level Denver Center
11:40AM 37.0806 -105.4692 78° East 455 524 41,000  Level Denver Center
11:42AM 37.1106 -105.2947 78° East 458 527 41,000  Level Denver Center
11:43AM 37.1342 -105.1447 79° East 458 527 41,000  Level Denver Center
11:44AM 37.1639 -104.9706 78° East 458 527 41,000  Level Denver Center
11:45AM 37.1889 -104.8219 78° East 458 527 41,000  Level Denver Center
11:46AM 37.2172 -104.6472 78° East 458 527 41,000  Level Denver Center
11:47AM 37.2422 -104.4972 78° East 459 528 41,000  Level Denver Center
11:48AM 37.2697 -104.3233 79° East 457 526 41,000  Level Denver Center
11:49AM 37.2933 -104.1753 79° East 455 524 41,000  Level Denver Center
11:50AM 37.3206 -104.0019 79° East 457 526 41,000  Level Denver Center
11:51AM 37.3450 -103.8544 78° East 456 525 41,000  Level Denver Center
11:52AM 37.3722 -103.6811 79° East 458 527 41,000  Level Denver Center
11:53AM 37.3958 -103.5303 79° East 461 531 41,000  Level Denver Center
11:54AM 37.4228 -103.3547 79° East 461 531 41,000  Level Denver Center
11:55AM 37.4458 -103.2019 79° East 464 534 41,000  Level Denver Center
11:56AM 37.4722 -103.0236 79° East 464 534 41,000  Level Denver Center
11:57AM 37.4956 -102.8719 79° East 462 532 41,000  Level Denver Center
11:58AM 37.5217 -102.6944 79° East 461 531 41,000  Level Denver Center
11:59AM 37.5339 -102.5989 81° East 461 531 41,000  Level Kansas City Center
12:00PM 37.5611 -102.4222 79° East 460 529 41,000  Level Kansas City Center
12:01PM 37.5817 -102.2706 80° East 459 528 41,000  Level Kansas City Center
12:02PM 37.6067 -102.0953 80° East 456 525 41,000  Level Kansas City Center
12:03PM 37.6281 -101.9447 80° East 456 525 41,000  Level Kansas City Center
12:04PM 37.6522 -101.7697 80° East 453 521 41,000  Level Kansas City Center
12:05PM 37.6731 -101.6200 80° East 454 522 41,000  Level Kansas City Center
12:06PM 37.6967 -101.4456 80° East 452 520 41,000  Level Kansas City Center
12:07PM 37.7169 -101.2964 80° East 450 518 41,000  Level Kansas City Center
12:08PM 37.7400 -101.1228 80° East 452 520 41,000  Level Kansas City Center
12:09PM 37.7606 -100.9650 81° East 453 521 41,000  Level Kansas City Center
12:10PM 37.7806 -100.8128 81° East 457 526 41,000  Level Kansas City Center
12:11PM 37.8044 -100.6311 80° East 463 533 41,000  Level Kansas City Center
12:12PM 37.8231 -100.4789 81° East 459 528 41,000  Level Kansas City Center
12:13PM 37.8456 -100.2981 81° East 463 533 41,000  Level Kansas City Center
12:14PM 37.8639 -100.1442 81° East 466 536 41,000  Level Kansas City Center
12:15PM 37.8864 -99.9664 81° East 461 531 41,000  Level Kansas City Center
12:16PM 37.9039 -99.8119 82° East 460 529 41,000  Level Kansas City Center
12:17PM 37.9222 -99.6594 81° East 458 527 41,000  Level Kansas City Center
12:18PM 37.9439 -99.4794 81° East 456 525 41,000  Level Kansas City Center
12:19PM 37.9606 -99.3183 82° East 460 529 41,000  Level Kansas City Center
12:21PM 37.9803 -99.1586 81° East 459 528 41,000  Level Kansas City Center
12:22PM 37.9992 -98.9978 81° East 460 529 41,000  Level Kansas City Center
12:23PM 38.0183 -98.8375 81° East 460 529 41,000  Level Kansas City Center
12:24PM 38.0367 -98.6761 82° East 461 531 41,000  Level Kansas City Center
12:25PM 38.0589 -98.4811 82° East 464 534 41,000  Level Kansas City Center
12:26PM 38.0778 -98.3178 82° East 466 536 41,000  Level Kansas City Center
12:27PM 38.0950 -98.1550 82° East 463 533 41,000  Level Kansas City Center
12:28PM 38.1108 -97.9961 83° East 467 537 41,000  Level Kansas City Center
12:29PM 38.1314 -97.8050 82° East 470 541 41,000  Level Kansas City Center
12:30PM 38.1458 -97.6569 83° East 470 541 41,000  Level Kansas City Center
12:31PM 38.1644 -97.4686 83° East 473 544 41,000  Level Kansas City Center
12:32PM 38.1797 -97.3169 83° East 479 551 41,000 -780 Level Kansas City Center
12:33PM 38.1961 -97.1508 83° East 475 547 39,400 -2,340 Descending Kansas City Center
12:34PM 38.2156 -96.9514 83° East 473 544 36,200 -2,760 Descending Kansas City Center
12:35PM 38.2311 -96.7853 83° East 474 545 33,700 -2,280 Descending Kansas City Center
12:36PM 38.2467 -96.6225 83° East 466 536 31,600 -2,100 Descending Kansas City Center
12:37PM 38.2622 -96.4486 83° East 455 524 29,400 -2,040 Descending Kansas City Center
12:38PM 38.2767 -96.2983 83° East 448 516 27,400 -2,100 Descending Kansas City Center
12:39PM 38.3017 -96.1267 79° East 447 514 25,100 -2,100 Descending Kansas City Center
12:40PM 38.3769 -96.0189 48° Northeast 430 495 23,100 -2,040 Descending Kansas City Center
12:41PM 38.4667 -95.8931 48° Northeast 430 495 20,900 -2,040 Descending Kansas City Center
12:42PM 38.5417 -95.7875 48° Northeast 423 487 19,000 -1,920 Descending Kansas City Center
12:43PM 38.6269 -95.6697 47° Northeast 408 470 16,900 -1,980 Descending Kansas City Center
12:44PM 38.6986 -95.5708 47° Northeast 398 458 14,900 -1,860 Descending Kansas City Center
12:45PM 38.7664 -95.4747 48° Northeast 385 443 13,100 -1,560 Descending Kansas City Center
12:46PM 38.8275 -95.3603 56° Northeast 348 400 11,700 -1,500 Descending Kansas City Center
12:47PM 38.8783 -95.2672 55° Northeast 336 387 10,100 -1,440 Descending Kansas City Center
12:48PM 38.9325 -95.1658 55° Northeast 309 356 8,800 -1,140 Descending Kansas City Center
12:49PM 38.9767 -95.0861 55° Northeast 291 335 7,800 -1,320 Descending Kansas City Center
12:51PM 39.0247 -94.9953 56° Northeast 278 320 6,100 -1,380 Descending Kansas City Center
12:52PM 39.0714 -94.9094 55° Northeast 265 305 5,000 -1,200 Descending Kansas City Center
12:53PM 39.1092 -94.8406 55° Northeast 250 288 3,700 -1,020 Descending Kansas City Center
12:54PM 39.1619 -94.7739 44° Northeast 236 272 3,000 -540 Descending Kansas City Center
12:55PM 39.2064 -94.7550 18° North 174 200 2,600 -480 Descending Kansas City Center
12:56PM 39.2439 -94.7436 13° North 148 170 2,100 -660 Descending Kansas City Center
12:57PM 39.2839 -94.7311 14° North 128 147 1,300 -780 Descending Kansas City Center